sensor_id;sensor_type;location;lat;lon;timestamp;P1;durP1;ratioP1;P2;durP2;ratioP2
33926;SDS011;20485;50.992;5.550;2023-04-15T00:00:36;4.47;;;2.03;;
33926;SDS011;20485;50.992;5.550;2023-04-15T00:03:02;7.85;;;2.35;;
33926;SDS011;20485;50.992;5.550;2023-04-15T00:05:29;5.13;;;2.22;;
33926;SDS011;20485;50.992;5.550;2023-04-15T00:07:55;7.97;;;2.42;;
33926;SDS011;20485;50.992;5.550;2023-04-15T00:10:28;9.10;;;2.22;;
33926;SDS011;20485;50.992;5.550;2023-04-15T00:12:53;4.45;;;1.88;;
33926;SDS011;20485;50.992;5.550;2023-04-15T00:15:19;7.22;;;2.08;;
33926;SDS011;20485;50.992;5.550;2023-04-15T00:17:45;6.15;;;2.78;;
33926;SDS011;20485;50.992;5.550;2023-04-15T00:20:11;10.07;;;2.67;;
33926;SDS011;20485;50.992;5.550;2023-04-15T00:22:37;9.77;;;2.28;;
33926;SDS011;20485;50.992;5.550;2023-04-15T00:25:02;5.38;;;2.55;;
33926;SDS011;20485;50.992;5.550;2023-04-15T00:27:28;8.95;;;2.60;;
33926;SDS011;20485;50.992;5.550;2023-04-15T00:29:54;10.00;;;2.60;;
33926;SDS011;20485;50.992;5.550;2023-04-15T00:32:20;6.07;;;2.28;;
33926;SDS011;20485;50.992;5.550;2023-04-15T00:34:46;6.78;;;2.47;;
33926;SDS011;20485;50.992;5.550;2023-04-15T00:37:11;7.00;;;2.50;;
33926;SDS011;20485;50.992;5.550;2023-04-15T00:39:37;10.10;;;2.80;;
33926;SDS011;20485;50.992;5.550;2023-04-15T00:42:03;10.52;;;2.80;;
33926;SDS011;20485;50.992;5.550;2023-04-15T00:44:29;8.93;;;2.60;;
33926;SDS011;20485;50.992;5.550;2023-04-15T00:46:55;7.03;;;2.53;;
33926;SDS011;20485;50.992;5.550;2023-04-15T00:49:21;6.85;;;2.70;;
33926;SDS011;20485;50.992;5.550;2023-04-15T00:51:47;9.23;;;2.80;;
33926;SDS011;20485;50.992;5.550;2023-04-15T00:54:13;10.27;;;3.20;;
33926;SDS011;20485;50.992;5.550;2023-04-15T00:56:40;9.05;;;2.13;;
33926;SDS011;20485;50.992;5.550;2023-04-15T00:59:07;7.53;;;2.50;;
33926;SDS011;20485;50.992;5.550;2023-04-15T01:01:33;11.20;;;2.92;;
33926;SDS011;20485;50.992;5.550;2023-04-15T01:04:00;10.02;;;2.70;;
33926;SDS011;20485;50.992;5.550;2023-04-15T01:06:27;9.20;;;2.65;;
33926;SDS011;20485;50.992;5.550;2023-04-15T01:08:53;14.23;;;3.15;;
33926;SDS011;20485;50.992;5.550;2023-04-15T01:11:19;7.43;;;2.90;;
33926;SDS011;20485;50.992;5.550;2023-04-15T01:13:48;6.57;;;2.40;;
33926;SDS011;20485;50.992;5.550;2023-04-15T01:16:15;17.27;;;2.90;;
33926;SDS011;20485;50.992;5.550;2023-04-15T01:18:41;5.93;;;2.65;;
33926;SDS011;20485;50.992;5.550;2023-04-15T01:21:07;7.18;;;3.30;;
33926;SDS011;20485;50.992;5.550;2023-04-15T01:23:35;9.27;;;4.10;;
33926;SDS011;20485;50.992;5.550;2023-04-15T01:26:02;12.45;;;4.93;;
33926;SDS011;20485;50.992;5.550;2023-04-15T01:28:28;16.25;;;4.93;;
33926;SDS011;20485;50.992;5.550;2023-04-15T01:31:08;11.13;;;5.22;;
33926;SDS011;20485;50.992;5.550;2023-04-15T01:33:38;15.68;;;4.50;;
33926;SDS011;20485;50.992;5.550;2023-04-15T01:36:05;11.23;;;4.88;;
33926;SDS011;20485;50.992;5.550;2023-04-15T01:38:32;12.85;;;4.47;;
33926;SDS011;20485;50.992;5.550;2023-04-15T01:41:03;12.20;;;4.10;;
33926;SDS011;20485;50.992;5.550;2023-04-15T01:43:30;12.43;;;4.30;;
33926;SDS011;20485;50.992;5.550;2023-04-15T01:45:57;15.68;;;3.88;;
33926;SDS011;20485;50.992;5.550;2023-04-15T01:48:29;9.07;;;4.60;;
33926;SDS011;20485;50.992;5.550;2023-04-15T01:51:13;13.57;;;4.57;;
33926;SDS011;20485;50.992;5.550;2023-04-15T01:53:39;10.50;;;4.53;;
33926;SDS011;20485;50.992;5.550;2023-04-15T01:56:04;9.27;;;4.55;;
33926;SDS011;20485;50.992;5.550;2023-04-15T01:58:31;14.15;;;4.57;;
33926;SDS011;20485;50.992;5.550;2023-04-15T02:00:57;12.45;;;4.78;;
33926;SDS011;20485;50.992;5.550;2023-04-15T02:03:23;12.95;;;4.22;;
33926;SDS011;20485;50.992;5.550;2023-04-15T02:05:49;8.52;;;4.18;;
33926;SDS011;20485;50.992;5.550;2023-04-15T02:08:15;11.85;;;4.60;;
33926;SDS011;20485;50.992;5.550;2023-04-15T02:10:41;7.40;;;3.47;;
33926;SDS011;20485;50.992;5.550;2023-04-15T02:13:07;13.40;;;4.25;;
33926;SDS011;20485;50.992;5.550;2023-04-15T02:15:33;7.88;;;3.88;;
33926;SDS011;20485;50.992;5.550;2023-04-15T02:17:59;15.20;;;5.20;;
33926;SDS011;20485;50.992;5.550;2023-04-15T02:20:25;9.90;;;4.05;;
33926;SDS011;20485;50.992;5.550;2023-04-15T02:22:50;12.02;;;4.70;;
33926;SDS011;20485;50.992;5.550;2023-04-15T02:25:16;13.77;;;4.43;;
33926;SDS011;20485;50.992;5.550;2023-04-15T02:27:42;13.48;;;3.78;;
33926;SDS011;20485;50.992;5.550;2023-04-15T02:30:08;15.65;;;4.38;;
33926;SDS011;20485;50.992;5.550;2023-04-15T02:32:34;10.25;;;4.35;;
33926;SDS011;20485;50.992;5.550;2023-04-15T02:35:02;13.30;;;3.95;;
33926;SDS011;20485;50.992;5.550;2023-04-15T02:37:29;10.32;;;3.88;;
33926;SDS011;20485;50.992;5.550;2023-04-15T02:39:56;8.60;;;3.65;;
33926;SDS011;20485;50.992;5.550;2023-04-15T02:42:21;9.68;;;4.57;;
33926;SDS011;20485;50.992;5.550;2023-04-15T02:44:47;10.60;;;3.42;;
33926;SDS011;20485;50.992;5.550;2023-04-15T02:47:12;13.02;;;4.10;;
33926;SDS011;20485;50.992;5.550;2023-04-15T02:49:39;14.63;;;4.07;;
33926;SDS011;20485;50.992;5.550;2023-04-15T02:52:05;12.48;;;3.67;;
33926;SDS011;20485;50.992;5.550;2023-04-15T02:54:31;7.80;;;3.40;;
33926;SDS011;20485;50.992;5.550;2023-04-15T02:56:58;8.05;;;3.58;;
33926;SDS011;20485;50.992;5.550;2023-04-15T02:59:23;7.05;;;3.58;;
33926;SDS011;20485;50.992;5.550;2023-04-15T03:01:49;10.27;;;4.15;;
33926;SDS011;20485;50.992;5.550;2023-04-15T03:04:15;8.43;;;3.50;;
33926;SDS011;20485;50.992;5.550;2023-04-15T03:06:41;14.23;;;3.65;;
33926;SDS011;20485;50.992;5.550;2023-04-15T03:09:06;11.20;;;3.95;;
33926;SDS011;20485;50.992;5.550;2023-04-15T03:11:32;16.35;;;3.63;;
33926;SDS011;20485;50.992;5.550;2023-04-15T03:13:59;7.88;;;3.10;;
33926;SDS011;20485;50.992;5.550;2023-04-15T03:16:25;9.35;;;3.80;;
33926;SDS011;20485;50.992;5.550;2023-04-15T03:18:51;14.52;;;3.55;;
33926;SDS011;20485;50.992;5.550;2023-04-15T03:21:16;14.82;;;3.63;;
33926;SDS011;20485;50.992;5.550;2023-04-15T03:23:43;11.10;;;3.55;;
33926;SDS011;20485;50.992;5.550;2023-04-15T03:26:10;11.40;;;3.67;;
33926;SDS011;20485;50.992;5.550;2023-04-15T03:28:50;8.93;;;3.72;;
33926;SDS011;20485;50.992;5.550;2023-04-15T03:31:15;7.18;;;3.58;;
33926;SDS011;20485;50.992;5.550;2023-04-15T03:33:41;18.00;;;3.58;;
33926;SDS011;20485;50.992;5.550;2023-04-15T03:36:07;14.35;;;3.58;;
33926;SDS011;20485;50.992;5.550;2023-04-15T03:38:32;14.23;;;3.67;;
33926;SDS011;20485;50.992;5.550;2023-04-15T03:40:58;12.63;;;3.42;;
33926;SDS011;20485;50.992;5.550;2023-04-15T03:43:24;9.60;;;3.15;;
33926;SDS011;20485;50.992;5.550;2023-04-15T03:45:49;7.35;;;3.30;;
33926;SDS011;20485;50.992;5.550;2023-04-15T03:48:15;7.40;;;3.35;;
33926;SDS011;20485;50.992;5.550;2023-04-15T03:50:41;9.82;;;3.53;;
33926;SDS011;20485;50.992;5.550;2023-04-15T03:53:06;20.50;;;3.70;;
33926;SDS011;20485;50.992;5.550;2023-04-15T03:55:32;12.40;;;3.78;;
33926;SDS011;20485;50.992;5.550;2023-04-15T03:57:58;12.85;;;3.80;;
33926;SDS011;20485;50.992;5.550;2023-04-15T04:00:23;12.25;;;3.28;;
33926;SDS011;20485;50.992;5.550;2023-04-15T04:02:49;8.00;;;3.50;;
33926;SDS011;20485;50.992;5.550;2023-04-15T04:05:15;19.30;;;3.60;;
33926;SDS011;20485;50.992;5.550;2023-04-15T04:07:41;12.13;;;3.20;;
33926;SDS011;20485;50.992;5.550;2023-04-15T04:10:07;14.90;;;3.63;;
33926;SDS011;20485;50.992;5.550;2023-04-15T04:12:32;16.00;;;3.90;;
33926;SDS011;20485;50.992;5.550;2023-04-15T04:14:58;16.45;;;4.40;;
33926;SDS011;20485;50.992;5.550;2023-04-15T04:17:24;8.45;;;3.58;;
33926;SDS011;20485;50.992;5.550;2023-04-15T04:19:49;9.30;;;3.60;;
33926;SDS011;20485;50.992;5.550;2023-04-15T04:22:15;8.38;;;3.72;;
33926;SDS011;20485;50.992;5.550;2023-04-15T04:24:41;7.93;;;3.28;;
33926;SDS011;20485;50.992;5.550;2023-04-15T04:27:06;14.68;;;4.38;;
33926;SDS011;20485;50.992;5.550;2023-04-15T04:29:32;13.02;;;4.13;;
33926;SDS011;20485;50.992;5.550;2023-04-15T04:31:58;7.80;;;3.15;;
33926;SDS011;20485;50.992;5.550;2023-04-15T04:34:23;11.00;;;2.95;;
33926;SDS011;20485;50.992;5.550;2023-04-15T04:36:49;8.73;;;3.13;;
33926;SDS011;20485;50.992;5.550;2023-04-15T04:39:14;15.15;;;3.53;;
33926;SDS011;20485;50.992;5.550;2023-04-15T04:41:40;8.32;;;3.55;;
33926;SDS011;20485;50.992;5.550;2023-04-15T04:44:06;11.20;;;3.45;;
33926;SDS011;20485;50.992;5.550;2023-04-15T04:46:31;17.13;;;3.50;;
33926;SDS011;20485;50.992;5.550;2023-04-15T04:48:57;12.65;;;3.25;;
33926;SDS011;20485;50.992;5.550;2023-04-15T04:51:22;10.43;;;3.10;;
33926;SDS011;20485;50.992;5.550;2023-04-15T04:53:48;8.30;;;3.70;;
33926;SDS011;20485;50.992;5.550;2023-04-15T04:56:14;11.77;;;3.60;;
33926;SDS011;20485;50.992;5.550;2023-04-15T04:58:40;9.05;;;3.42;;
33926;SDS011;20485;50.992;5.550;2023-04-15T05:01:06;14.32;;;3.92;;
33926;SDS011;20485;50.992;5.550;2023-04-15T05:03:32;11.30;;;3.95;;
33926;SDS011;20485;50.992;5.550;2023-04-15T05:05:57;14.38;;;4.65;;
33926;SDS011;20485;50.992;5.550;2023-04-15T05:08:23;12.45;;;4.47;;
33926;SDS011;20485;50.992;5.550;2023-04-15T05:10:49;18.88;;;5.07;;
33926;SDS011;20485;50.992;5.550;2023-04-15T05:13:15;12.25;;;5.03;;
33926;SDS011;20485;50.992;5.550;2023-04-15T05:15:40;11.82;;;4.32;;
33926;SDS011;20485;50.992;5.550;2023-04-15T05:18:07;13.90;;;5.15;;
33926;SDS011;20485;50.992;5.550;2023-04-15T05:20:32;17.13;;;5.00;;
33926;SDS011;20485;50.992;5.550;2023-04-15T05:22:58;16.85;;;5.40;;
33926;SDS011;20485;50.992;5.550;2023-04-15T05:25:24;14.07;;;4.78;;
33926;SDS011;20485;50.992;5.550;2023-04-15T05:27:50;14.60;;;5.53;;
33926;SDS011;20485;50.992;5.550;2023-04-15T05:30:16;9.45;;;4.90;;
33926;SDS011;20485;50.992;5.550;2023-04-15T05:32:41;15.38;;;5.55;;
33926;SDS011;20485;50.992;5.550;2023-04-15T05:35:07;21.05;;;6.68;;
33926;SDS011;20485;50.992;5.550;2023-04-15T05:37:33;18.75;;;5.35;;
33926;SDS011;20485;50.992;5.550;2023-04-15T05:39:58;16.50;;;5.35;;
33926;SDS011;20485;50.992;5.550;2023-04-15T05:42:24;18.35;;;5.63;;
33926;SDS011;20485;50.992;5.550;2023-04-15T05:44:50;16.88;;;5.72;;
33926;SDS011;20485;50.992;5.550;2023-04-15T05:47:16;14.10;;;5.07;;
33926;SDS011;20485;50.992;5.550;2023-04-15T05:49:42;13.43;;;5.15;;
33926;SDS011;20485;50.992;5.550;2023-04-15T05:52:07;17.60;;;5.50;;
33926;SDS011;20485;50.992;5.550;2023-04-15T05:54:33;17.23;;;5.57;;
33926;SDS011;20485;50.992;5.550;2023-04-15T05:56:58;13.05;;;5.10;;
33926;SDS011;20485;50.992;5.550;2023-04-15T05:59:24;21.83;;;6.00;;
33926;SDS011;20485;50.992;5.550;2023-04-15T06:01:51;17.58;;;6.18;;
33926;SDS011;20485;50.992;5.550;2023-04-15T06:04:16;17.23;;;5.13;;
33926;SDS011;20485;50.992;5.550;2023-04-15T06:06:42;10.40;;;5.40;;
33926;SDS011;20485;50.992;5.550;2023-04-15T06:09:08;12.68;;;5.13;;
33926;SDS011;20485;50.992;5.550;2023-04-15T06:11:34;16.95;;;6.00;;
33926;SDS011;20485;50.992;5.550;2023-04-15T06:14:00;13.20;;;7.05;;
33926;SDS011;20485;50.992;5.550;2023-04-15T06:16:25;19.67;;;7.05;;
33926;SDS011;20485;50.992;5.550;2023-04-15T06:18:51;17.77;;;6.38;;
33926;SDS011;20485;50.992;5.550;2023-04-15T06:21:17;17.63;;;7.43;;
33926;SDS011;20485;50.992;5.550;2023-04-15T06:23:43;18.08;;;6.68;;
33926;SDS011;20485;50.992;5.550;2023-04-15T06:26:09;14.80;;;6.70;;
33926;SDS011;20485;50.992;5.550;2023-04-15T06:28:34;18.00;;;8.25;;
33926;SDS011;20485;50.992;5.550;2023-04-15T06:31:00;16.67;;;7.53;;
33926;SDS011;20485;50.992;5.550;2023-04-15T06:33:26;20.02;;;8.02;;
33926;SDS011;20485;50.992;5.550;2023-04-15T06:35:52;18.42;;;8.45;;
33926;SDS011;20485;50.992;5.550;2023-04-15T06:38:17;16.80;;;7.35;;
33926;SDS011;20485;50.992;5.550;2023-04-15T06:40:43;15.93;;;8.02;;
33926;SDS011;20485;50.992;5.550;2023-04-15T06:43:09;20.98;;;8.45;;
33926;SDS011;20485;50.992;5.550;2023-04-15T06:45:34;17.48;;;7.82;;
33926;SDS011;20485;50.992;5.550;2023-04-15T06:48:00;22.67;;;7.95;;
33926;SDS011;20485;50.992;5.550;2023-04-15T06:50:26;20.88;;;8.20;;
33926;SDS011;20485;50.992;5.550;2023-04-15T06:52:55;18.35;;;7.97;;
33926;SDS011;20485;50.992;5.550;2023-04-15T06:55:21;20.73;;;8.93;;
33926;SDS011;20485;50.992;5.550;2023-04-15T06:57:47;13.23;;;7.03;;
33926;SDS011;20485;50.992;5.550;2023-04-15T07:00:12;16.38;;;7.75;;
33926;SDS011;20485;50.992;5.550;2023-04-15T07:02:38;14.15;;;6.60;;
33926;SDS011;20485;50.992;5.550;2023-04-15T07:05:05;15.82;;;7.20;;
33926;SDS011;20485;50.992;5.550;2023-04-15T07:07:31;16.40;;;8.05;;
33926;SDS011;20485;50.992;5.550;2023-04-15T07:09:56;18.25;;;7.80;;
33926;SDS011;20485;50.992;5.550;2023-04-15T07:12:22;14.95;;;7.03;;
33926;SDS011;20485;50.992;5.550;2023-04-15T07:19:06;26.48;;;8.57;;
33926;SDS011;20485;50.992;5.550;2023-04-15T07:21:33;17.42;;;8.07;;
33926;SDS011;20485;50.992;5.550;2023-04-15T07:23:59;17.98;;;8.25;;
33926;SDS011;20485;50.992;5.550;2023-04-15T07:26:25;13.43;;;7.30;;
33926;SDS011;20485;50.992;5.550;2023-04-15T07:28:50;13.23;;;7.70;;
33926;SDS011;20485;50.992;5.550;2023-04-15T07:31:16;20.27;;;7.68;;
33926;SDS011;20485;50.992;5.550;2023-04-15T07:33:42;17.25;;;7.88;;
33926;SDS011;20485;50.992;5.550;2023-04-15T07:36:08;18.58;;;8.43;;
33926;SDS011;20485;50.992;5.550;2023-04-15T07:38:34;20.63;;;9.18;;
33926;SDS011;20485;50.992;5.550;2023-04-15T07:41:00;20.58;;;9.32;;
33926;SDS011;20485;50.992;5.550;2023-04-15T07:43:25;18.15;;;9.65;;
33926;SDS011;20485;50.992;5.550;2023-04-15T07:45:51;16.38;;;8.82;;
33926;SDS011;20485;50.992;5.550;2023-04-15T07:48:17;23.45;;;9.50;;
33926;SDS011;20485;50.992;5.550;2023-04-15T07:50:42;18.80;;;9.85;;
33926;SDS011;20485;50.992;5.550;2023-04-15T07:53:08;19.15;;;10.05;;
33926;SDS011;20485;50.992;5.550;2023-04-15T07:55:33;21.95;;;11.07;;
33926;SDS011;20485;50.992;5.550;2023-04-15T07:57:59;18.13;;;9.63;;
33926;SDS011;20485;50.992;5.550;2023-04-15T08:00:25;20.98;;;11.10;;
33926;SDS011;20485;50.992;5.550;2023-04-15T08:02:55;23.63;;;11.38;;
33926;SDS011;20485;50.992;5.550;2023-04-15T08:05:21;22.95;;;11.35;;
33926;SDS011;20485;50.992;5.550;2023-04-15T08:07:47;21.23;;;11.35;;
33926;SDS011;20485;50.992;5.550;2023-04-15T08:10:13;20.65;;;11.38;;
33926;SDS011;20485;50.992;5.550;2023-04-15T08:12:39;23.15;;;11.85;;
33926;SDS011;20485;50.992;5.550;2023-04-15T08:15:04;21.58;;;11.07;;
33926;SDS011;20485;50.992;5.550;2023-04-15T08:17:32;18.25;;;9.70;;
33926;SDS011;20485;50.992;5.550;2023-04-15T08:19:58;20.20;;;10.80;;
33926;SDS011;20485;50.992;5.550;2023-04-15T08:22:23;21.00;;;10.88;;
33926;SDS011;20485;50.992;5.550;2023-04-15T08:24:49;17.13;;;9.35;;
33926;SDS011;20485;50.992;5.550;2023-04-15T08:27:15;20.40;;;10.05;;
33926;SDS011;20485;50.992;5.550;2023-04-15T08:29:41;15.32;;;8.95;;
33926;SDS011;20485;50.992;5.550;2023-04-15T08:32:07;16.60;;;8.15;;
33926;SDS011;20485;50.992;5.550;2023-04-15T08:34:33;20.90;;;8.68;;
33926;SDS011;20485;50.992;5.550;2023-04-15T08:36:59;18.98;;;9.50;;
33926;SDS011;20485;50.992;5.550;2023-04-15T08:39:25;16.35;;;8.68;;
33926;SDS011;20485;50.992;5.550;2023-04-15T08:41:55;14.40;;;8.27;;
33926;SDS011;20485;50.992;5.550;2023-04-15T08:44:26;13.63;;;7.95;;
33926;SDS011;20485;50.992;5.550;2023-04-15T08:47:00;10.70;;;8.05;;
33926;SDS011;20485;50.992;5.550;2023-04-15T08:49:26;17.63;;;8.40;;
33926;SDS011;20485;50.992;5.550;2023-04-15T08:51:53;13.55;;;8.35;;
33926;SDS011;20485;50.992;5.550;2023-04-15T08:54:20;12.95;;;7.57;;
33926;SDS011;20485;50.992;5.550;2023-04-15T08:56:46;12.23;;;7.22;;
33926;SDS011;20485;50.992;5.550;2023-04-15T08:59:13;12.93;;;6.45;;
33926;SDS011;20485;50.992;5.550;2023-04-15T09:01:40;12.10;;;6.93;;
33926;SDS011;20485;50.992;5.550;2023-04-15T09:04:06;12.35;;;7.38;;
33926;SDS011;20485;50.992;5.550;2023-04-15T09:06:32;15.27;;;6.72;;
33926;SDS011;20485;50.992;5.550;2023-04-15T09:08:58;17.27;;;7.68;;
33926;SDS011;20485;50.992;5.550;2023-04-15T09:11:24;8.25;;;6.10;;
33926;SDS011;20485;50.992;5.550;2023-04-15T09:13:51;13.95;;;7.55;;
33926;SDS011;20485;50.992;5.550;2023-04-15T09:16:16;14.02;;;6.25;;
33926;SDS011;20485;50.992;5.550;2023-04-15T09:18:42;9.25;;;5.40;;
33926;SDS011;20485;50.992;5.550;2023-04-15T09:21:09;11.93;;;6.25;;
33926;SDS011;20485;50.992;5.550;2023-04-15T09:23:37;12.05;;;6.38;;
33926;SDS011;20485;50.992;5.550;2023-04-15T09:26:04;11.15;;;6.00;;
33926;SDS011;20485;50.992;5.550;2023-04-15T09:28:30;9.30;;;5.05;;
33926;SDS011;20485;50.992;5.550;2023-04-15T09:30:59;12.35;;;5.40;;
33926;SDS011;20485;50.992;5.550;2023-04-15T09:33:26;11.18;;;5.07;;
33926;SDS011;20485;50.992;5.550;2023-04-15T09:38:26;9.50;;;4.23;;
33926;SDS011;20485;50.992;5.550;2023-04-15T09:40:52;8.70;;;3.40;;
33926;SDS011;20485;50.992;5.550;2023-04-15T09:43:18;7.95;;;4.43;;
33926;SDS011;20485;50.992;5.550;2023-04-15T09:45:51;5.43;;;3.45;;
33926;SDS011;20485;50.992;5.550;2023-04-15T09:50:47;16.17;;;4.53;;
33926;SDS011;20485;50.992;5.550;2023-04-15T09:53:15;7.90;;;3.63;;
33926;SDS011;20485;50.992;5.550;2023-04-15T09:55:48;10.57;;;4.68;;
33926;SDS011;20485;50.992;5.550;2023-04-15T09:58:20;6.38;;;4.38;;
33926;SDS011;20485;50.992;5.550;2023-04-15T10:00:47;9.57;;;3.95;;
33926;SDS011;20485;50.992;5.550;2023-04-15T10:03:25;4.72;;;2.83;;
33926;SDS011;20485;50.992;5.550;2023-04-15T10:05:52;5.20;;;3.35;;
33926;SDS011;20485;50.992;5.550;2023-04-15T10:08:21;8.73;;;3.72;;
33926;SDS011;20485;50.992;5.550;2023-04-15T10:10:49;5.63;;;3.45;;
33926;SDS011;20485;50.992;5.550;2023-04-15T10:13:23;7.70;;;3.60;;
33926;SDS011;20485;50.992;5.550;2023-04-15T10:15:57;7.68;;;4.00;;
33926;SDS011;20485;50.992;5.550;2023-04-15T10:18:33;6.07;;;4.03;;
33926;SDS011;20485;50.992;5.550;2023-04-15T10:21:00;9.73;;;4.35;;
33926;SDS011;20485;50.992;5.550;2023-04-15T10:23:26;9.20;;;4.60;;
33926;SDS011;20485;50.992;5.550;2023-04-15T10:25:53;6.88;;;4.15;;
33926;SDS011;20485;50.992;5.550;2023-04-15T10:28:19;10.13;;;4.15;;
33926;SDS011;20485;50.992;5.550;2023-04-15T10:30:49;13.88;;;4.35;;
33926;SDS011;20485;50.992;5.550;2023-04-15T10:33:16;7.65;;;3.88;;
33926;SDS011;20485;50.992;5.550;2023-04-15T10:35:50;7.78;;;3.72;;
33926;SDS011;20485;50.992;5.550;2023-04-15T10:38:31;6.25;;;3.60;;
33926;SDS011;20485;50.992;5.550;2023-04-15T10:43:56;6.57;;;4.15;;
33926;SDS011;20485;50.992;5.550;2023-04-15T10:49:08;8.95;;;4.40;;
33926;SDS011;20485;50.992;5.550;2023-04-15T10:51:39;4.03;;;3.15;;
33926;SDS011;20485;50.992;5.550;2023-04-15T10:56:50;4.97;;;3.22;;
33926;SDS011;20485;50.992;5.550;2023-04-15T10:59:31;8.52;;;3.15;;
33926;SDS011;20485;50.992;5.550;2023-04-15T11:02:00;7.50;;;3.45;;
33926;SDS011;20485;50.992;5.550;2023-04-15T11:07:32;4.68;;;2.80;;
33926;SDS011;20485;50.992;5.550;2023-04-15T11:09:59;5.80;;;3.00;;
33926;SDS011;20485;50.992;5.550;2023-04-15T11:12:35;8.90;;;3.50;;
33926;SDS011;20485;50.992;5.550;2023-04-15T11:17:57;4.10;;;2.58;;
33926;SDS011;20485;50.992;5.550;2023-04-15T11:20:24;5.95;;;2.40;;
33926;SDS011;20485;50.992;5.550;2023-04-15T11:22:50;5.05;;;2.25;;
33926;SDS011;20485;50.992;5.550;2023-04-15T11:25:32;4.60;;;2.40;;
33926;SDS011;20485;50.992;5.550;2023-04-15T11:28:00;2.92;;;2.28;;
33926;SDS011;20485;50.992;5.550;2023-04-15T11:30:27;5.85;;;2.63;;
33926;SDS011;20485;50.992;5.550;2023-04-15T11:33:02;6.53;;;1.95;;
33926;SDS011;20485;50.992;5.550;2023-04-15T11:35:32;4.00;;;1.70;;
33926;SDS011;20485;50.992;5.550;2023-04-15T11:38:02;7.15;;;2.13;;
33926;SDS011;20485;50.992;5.550;2023-04-15T11:40:29;1.98;;;1.48;;
33926;SDS011;20485;50.992;5.550;2023-04-15T11:48:15;3.20;;;2.20;;
33926;SDS011;20485;50.992;5.550;2023-04-15T11:50:42;7.32;;;2.50;;
33926;SDS011;20485;50.992;5.550;2023-04-15T11:53:10;4.90;;;1.88;;
33926;SDS011;20485;50.992;5.550;2023-04-15T11:55:43;3.78;;;2.00;;
33926;SDS011;20485;50.992;5.550;2023-04-15T11:58:21;6.45;;;1.83;;
33926;SDS011;20485;50.992;5.550;2023-04-15T12:03:20;3.42;;;2.35;;
33926;SDS011;20485;50.992;5.550;2023-04-15T12:11:37;4.78;;;2.45;;
33926;SDS011;20485;50.992;5.550;2023-04-15T12:16:33;6.30;;;2.20;;
33926;SDS011;20485;50.992;5.550;2023-04-15T12:19:02;3.92;;;2.40;;
33926;SDS011;20485;50.992;5.550;2023-04-15T12:21:32;3.92;;;2.17;;
33926;SDS011;20485;50.992;5.550;2023-04-15T12:24:03;4.97;;;2.17;;
33926;SDS011;20485;50.992;5.550;2023-04-15T12:26:53;7.20;;;2.20;;
33926;SDS011;20485;50.992;5.550;2023-04-15T12:29:24;4.38;;;2.30;;
33926;SDS011;20485;50.992;5.550;2023-04-15T12:31:56;3.65;;;2.40;;
33926;SDS011;20485;50.992;5.550;2023-04-15T12:34:29;5.13;;;2.50;;
33926;SDS011;20485;50.992;5.550;2023-04-15T12:36:59;4.03;;;2.28;;
33926;SDS011;20485;50.992;5.550;2023-04-15T12:39:27;7.95;;;2.38;;
33926;SDS011;20485;50.992;5.550;2023-04-15T12:41:55;3.63;;;2.30;;
33926;SDS011;20485;50.992;5.550;2023-04-15T12:44:21;5.22;;;1.95;;
33926;SDS011;20485;50.992;5.550;2023-04-15T12:46:48;4.15;;;2.15;;
33926;SDS011;20485;50.992;5.550;2023-04-15T12:49:15;7.53;;;2.38;;
33926;SDS011;20485;50.992;5.550;2023-04-15T12:51:43;2.35;;;1.60;;
33926;SDS011;20485;50.992;5.550;2023-04-15T12:54:09;3.20;;;1.80;;
33926;SDS011;20485;50.992;5.550;2023-04-15T12:56:35;5.05;;;1.70;;
33926;SDS011;20485;50.992;5.550;2023-04-15T12:59:01;3.22;;;1.73;;
33926;SDS011;20485;50.992;5.550;2023-04-15T13:01:27;2.45;;;1.83;;
33926;SDS011;20485;50.992;5.550;2023-04-15T13:03:53;2.58;;;1.80;;
33926;SDS011;20485;50.992;5.550;2023-04-15T13:06:19;2.72;;;1.55;;
33926;SDS011;20485;50.992;5.550;2023-04-15T13:08:45;4.65;;;1.45;;
33926;SDS011;20485;50.992;5.550;2023-04-15T13:11:11;3.22;;;1.40;;
33926;SDS011;20485;50.992;5.550;2023-04-15T13:13:37;2.85;;;1.38;;
33926;SDS011;20485;50.992;5.550;2023-04-15T13:16:03;2.35;;;1.40;;
33926;SDS011;20485;50.992;5.550;2023-04-15T13:18:29;3.92;;;1.95;;
33926;SDS011;20485;50.992;5.550;2023-04-15T13:20:55;2.38;;;1.70;;
33926;SDS011;20485;50.992;5.550;2023-04-15T13:23:21;3.50;;;1.77;;
33926;SDS011;20485;50.992;5.550;2023-04-15T13:25:47;3.30;;;2.10;;
33926;SDS011;20485;50.992;5.550;2023-04-15T13:28:12;2.70;;;1.80;;
33926;SDS011;20485;50.992;5.550;2023-04-15T13:30:38;3.78;;;2.10;;
33926;SDS011;20485;50.992;5.550;2023-04-15T13:33:04;2.88;;;2.10;;
33926;SDS011;20485;50.992;5.550;2023-04-15T13:35:33;4.57;;;2.10;;
33926;SDS011;20485;50.992;5.550;2023-04-15T13:38:29;3.97;;;2.38;;
33926;SDS011;20485;50.992;5.550;2023-04-15T13:40:55;1.67;;;1.58;;
33926;SDS011;20485;50.992;5.550;2023-04-15T13:43:21;3.88;;;2.08;;
33926;SDS011;20485;50.992;5.550;2023-04-15T13:45:47;5.40;;;2.10;;
33926;SDS011;20485;50.992;5.550;2023-04-15T13:48:13;3.38;;;2.10;;
33926;SDS011;20485;50.992;5.550;2023-04-15T13:50:39;6.47;;;2.10;;
33926;SDS011;20485;50.992;5.550;2023-04-15T13:53:09;5.10;;;1.80;;
33926;SDS011;20485;50.992;5.550;2023-04-15T13:55:38;5.07;;;2.20;;
33926;SDS011;20485;50.992;5.550;2023-04-15T13:58:06;3.60;;;1.60;;
33926;SDS011;20485;50.992;5.550;2023-04-15T14:00:35;3.85;;;1.35;;
33926;SDS011;20485;50.992;5.550;2023-04-15T14:03:01;8.63;;;1.67;;
33926;SDS011;20485;50.992;5.550;2023-04-15T14:05:31;6.13;;;1.80;;
33926;SDS011;20485;50.992;5.550;2023-04-15T14:07:58;3.13;;;2.10;;
33926;SDS011;20485;50.992;5.550;2023-04-15T14:10:24;2.67;;;1.48;;
33926;SDS011;20485;50.992;5.550;2023-04-15T14:12:50;4.38;;;1.67;;
33926;SDS011;20485;50.992;5.550;2023-04-15T14:15:15;1.88;;;1.30;;
33926;SDS011;20485;50.992;5.550;2023-04-15T14:17:41;3.08;;;1.42;;
33926;SDS011;20485;50.992;5.550;2023-04-15T14:20:07;7.00;;;1.70;;
33926;SDS011;20485;50.992;5.550;2023-04-15T14:22:34;9.73;;;2.65;;
33926;SDS011;20485;50.992;5.550;2023-04-15T14:24:59;3.00;;;1.80;;
33926;SDS011;20485;50.992;5.550;2023-04-15T14:27:25;2.28;;;1.70;;
33926;SDS011;20485;50.992;5.550;2023-04-15T14:29:51;3.15;;;1.88;;
33926;SDS011;20485;50.992;5.550;2023-04-15T14:32:18;5.07;;;2.08;;
33926;SDS011;20485;50.992;5.550;2023-04-15T14:34:44;3.72;;;1.80;;
33926;SDS011;20485;50.992;5.550;2023-04-15T14:37:09;4.85;;;2.42;;
33926;SDS011;20485;50.992;5.550;2023-04-15T14:39:35;4.68;;;2.08;;
33926;SDS011;20485;50.992;5.550;2023-04-15T14:42:01;5.45;;;1.92;;
33926;SDS011;20485;50.992;5.550;2023-04-15T14:44:26;2.53;;;1.70;;
33926;SDS011;20485;50.992;5.550;2023-04-15T14:46:52;3.10;;;1.95;;
33926;SDS011;20485;50.992;5.550;2023-04-15T14:49:21;4.00;;;1.95;;
33926;SDS011;20485;50.992;5.550;2023-04-15T14:51:47;3.03;;;1.90;;
33926;SDS011;20485;50.992;5.550;2023-04-15T14:54:13;6.50;;;1.63;;
33926;SDS011;20485;50.992;5.550;2023-04-15T14:56:39;8.40;;;1.90;;
33926;SDS011;20485;50.992;5.550;2023-04-15T14:59:05;2.38;;;1.10;;
33926;SDS011;20485;50.992;5.550;2023-04-15T15:01:37;4.10;;;1.40;;
33926;SDS011;20485;50.992;5.550;2023-04-15T15:04:03;4.13;;;1.45;;
33926;SDS011;20485;50.992;5.550;2023-04-15T15:06:29;3.80;;;1.50;;
33926;SDS011;20485;50.992;5.550;2023-04-15T15:08:55;3.38;;;1.35;;
33926;SDS011;20485;50.992;5.550;2023-04-15T15:11:21;3.25;;;1.67;;
33926;SDS011;20485;50.992;5.550;2023-04-15T15:13:46;2.05;;;1.30;;
33926;SDS011;20485;50.992;5.550;2023-04-15T15:16:12;2.45;;;1.20;;
33926;SDS011;20485;50.992;5.550;2023-04-15T15:18:38;2.58;;;1.15;;